Time;durP1;ratioP1;P1;durP2;ratioP2;P2;SDS_P1;SDS_P2;PMS_P1;PMS_P2;Temp;Humidity;BMP_temperature;BMP_pressure;BME280_temperature;BME280_humidity;BME280_pressure;Samples;Min_cycle;Max_cycle;Signal;HPM_P1;HPM_P2
2024/02/03 00:00:16;;;;;;;16.20;11.95;;;;;;;-0.61;100.00;98304.84;1224404;75;2931335;-61
2024/02/03 00:02:49;;;;;;;13.90;11.40;;;;;;;-0.57;100.00;98286.03;1197171;75;5043765;-64
2024/02/03 00:05:22;;;;;;;17.75;11.80;;;;;;;-0.51;100.00;98301.38;1225507;75;2922063;-62
2024/02/03 00:07:55;;;;;;;12.70;10.25;;;;;;;-0.56;100.00;98285.63;1223940;75;2930230;-61
2024/02/03 00:10:28;;;;;;;19.40;14.60;;;;;;;-0.56;100.00;98295.63;1225058;75;2920829;-64
2024/02/03 00:13:04;;;;;;;16.50;12.80;;;;;;;-0.43;100.00;98291.41;1223941;75;2928046;-65
2024/02/03 00:15:40;;;;;;;19.15;12.55;;;;;;;-0.57;100.00;98273.34;1172529;75;5960826;-63
2024/02/03 00:18:13;;;;;;;15.80;11.85;;;;;;;-0.62;100.00;98281.06;1186640;75;5849797;-63
2024/02/03 00:20:46;;;;;;;15.65;12.35;;;;;;;-0.70;100.00;98282.94;1223593;75;2925932;-65
2024/02/03 00:23:19;;;;;;;16.75;12.10;;;;;;;-0.72;100.00;98275.28;1225309;75;2914535;-64
2024/02/03 00:25:52;;;;;;;14.45;10.95;;;;;;;-0.77;100.00;98282.94;1223238;75;2917161;-63
2024/02/03 00:28:26;;;;;;;19.40;14.25;;;;;;;-0.88;100.00;98264.16;1224997;75;2918559;-63
2024/02/03 00:31:03;;;;;;;24.40;17.85;;;;;;;-1.02;100.00;98272.97;1224178;75;2919591;-62
2024/02/03 00:33:39;;;;;;;24.45;17.90;;;;;;;-0.87;100.00;98284.50;1224072;75;2922679;-64
2024/02/03 00:36:22;;;;;;;25.35;19.20;;;;;;;-0.92;100.00;98247.25;1225443;75;2846070;-64
2024/02/03 00:38:57;;;;;;;26.10;18.95;;;;;;;-0.80;100.00;98240.72;1223938;75;2918658;-60
2024/02/03 00:41:30;;;;;;;24.05;17.40;;;;;;;-0.75;100.00;98243.78;1223838;75;2919027;-61
2024/02/03 00:44:03;;;;;;;23.40;17.45;;;;;;;-0.64;100.00;98241.09;1197106;75;5087932;-62
2024/02/03 00:46:39;;;;;;;24.45;17.95;;;;;;;-0.67;100.00;98231.13;1193374;75;5264206;-64
2024/02/03 00:49:12;;;;;;;20.75;15.65;;;;;;;-0.63;100.00;98233.78;1188774;75;5951681;-62
2024/02/03 00:51:48;;;;;;;17.70;13.95;;;;;;;-0.57;100.00;98259.16;1224514;75;2923571;-67
2024/02/03 00:54:21;;;;;;;14.75;12.05;;;;;;;-0.55;100.00;98244.16;1224232;75;2931049;-61
2024/02/03 00:56:56;;;;;;;22.60;16.80;;;;;;;-0.55;100.00;98248.78;1224054;75;2841898;-65
2024/02/03 00:59:29;;;;;;;22.65;16.65;;;;;;;-0.50;100.00;98246.47;1223000;75;2925203;-63
2024/02/03 01:02:06;;;;;;;18.35;15.60;;;;;;;-0.47;100.00;98245.69;1225064;75;2923467;-64
2024/02/03 01:04:39;;;;;;;21.95;17.00;;;;;;;-0.45;100.00;98218.41;1192444;75;5520274;-62
2024/02/03 01:07:12;;;;;;;18.40;14.55;;;;;;;-0.30;100.00;98233.34;1224182;75;2922712;-65
2024/02/03 01:09:44;;;;;;;16.55;13.25;;;;;;;-0.29;100.00;98234.09;1224110;75;2918170;-62
2024/02/03 01:12:19;;;;;;;21.15;16.35;;;;;;;-0.55;100.00;98252.22;1225654;67;2917006;-62
2024/02/03 01:14:52;;;;;;;23.25;17.60;;;;;;;-0.53;100.00;98225.72;1225040;75;2920141;-63
2024/02/03 01:17:29;;;;;;;21.15;15.80;;;;;;;-0.47;100.00;98237.59;1224427;75;2923581;-65
2024/02/03 01:20:05;;;;;;;20.65;15.50;;;;;;;-0.40;100.00;98228.00;1222834;75;2916301;-63
2024/02/03 01:22:38;;;;;;;18.85;14.45;;;;;;;-0.49;100.00;98236.47;1225853;75;2914146;-63
2024/02/03 01:25:12;;;;;;;28.10;19.60;;;;;;;-1.10;100.00;98236.50;1224668;75;2924925;-64
2024/02/03 01:27:45;;;;;;;23.90;17.55;;;;;;;-0.86;100.00;98230.34;1225412;75;2919870;-62
2024/02/03 01:30:17;;;;;;;29.05;20.85;;;;;;;-1.12;100.00;98234.19;1224860;75;2923218;-65
2024/02/03 01:32:53;;;;;;;26.50;20.50;;;;;;;-1.01;100.00;98238.78;1223002;75;2917343;-64
2024/02/03 01:35:27;;;;;;;24.15;17.00;;;;;;;-0.94;100.00;98231.53;1224299;75;2922748;-64
2024/02/03 01:38:00;;;;;;;24.30;17.20;;;;;;;-1.00;100.00;98234.97;1225044;75;2919564;-62
2024/02/03 01:40:33;;;;;;;23.50;17.65;;;;;;;-1.04;100.00;98229.59;1224717;75;2924593;-62
2024/02/03 01:43:10;;;;;;;20.65;16.30;;;;;;;-0.87;100.00;98231.53;1225937;75;2918578;-62
2024/02/03 01:45:43;;;;;;;18.50;13.85;;;;;;;-0.88;100.00;98218.47;1225264;75;2924247;-61
2024/02/03 01:48:19;;;;;;;18.05;12.60;;;;;;;-1.00;100.00;98233.06;1225344;75;2919346;-62
2024/02/03 01:50:56;;;;;;;26.20;17.55;;;;;;;-1.02;100.00;98234.59;1224765;75;2919317;-64
2024/02/03 01:53:29;;;;;;;19.10;14.90;;;;;;;-1.02;100.00;98221.16;1225158;75;2928998;-64
2024/02/03 01:56:03;;;;;;;20.70;15.00;;;;;;;-1.01;100.00;98231.53;1225098;75;2921783;-61
2024/02/03 01:58:36;;;;;;;16.75;13.40;;;;;;;-0.88;100.00;98223.84;1223916;75;2978137;-63
2024/02/03 02:01:10;;;;;;;15.55;11.80;;;;;;;-0.86;100.00;98218.84;1223700;75;2937766;-63
2024/02/03 02:03:47;;;;;;;15.25;11.20;;;;;;;-0.81;100.00;98217.69;1225256;75;2924949;-63
2024/02/03 02:06:23;;;;;;;16.15;11.55;;;;;;;-0.99;100.00;98212.31;1225090;75;2920389;-65
2024/02/03 02:08:56;;;;;;;13.60;10.60;;;;;;;-0.98;100.00;98216.56;1224186;75;2926518;-60
2024/02/03 02:11:30;;;;;;;15.25;12.10;;;;;;;-0.87;100.00;98217.28;1225839;75;2916319;-64
2024/02/03 02:14:03;;;;;;;17.60;13.90;;;;;;;-1.03;100.00;98215.00;1224630;75;2918232;-62
2024/02/03 02:16:37;;;;;;;17.00;12.95;;;;;;;-0.84;100.00;98221.13;1225329;75;2915259;-63
2024/02/03 02:19:13;;;;;;;13.75;10.75;;;;;;;-0.80;100.00;98203.09;1225605;75;2918498;-64
2024/02/03 02:21:48;;;;;;;13.25;10.65;;;;;;;-1.01;100.00;98210.03;1224973;75;2923225;-63
2024/02/03 02:24:22;;;;;;;17.20;14.25;;;;;;;-1.07;100.00;98209.63;1225274;75;2917615;-64
2024/02/03 02:26:54;;;;;;;17.50;13.55;;;;;;;-1.08;100.00;98204.66;1224952;75;2927318;-66
2024/02/03 02:29:27;;;;;;;19.35;13.35;;;;;;;-1.00;100.00;98216.94;1225032;75;2924310;-63
2024/02/03 02:32:00;;;;;;;22.20;14.90;;;;;;;-1.12;100.00;98209.25;1224718;75;2920738;-63
2024/02/03 02:34:33;;;;;;;16.85;14.05;;;;;;;-1.20;100.00;98202.31;1225717;75;2923917;-65
2024/02/03 02:37:09;;;;;;;18.45;14.40;;;;;;;-1.24;100.00;98213.09;1224559;75;2913762;-63
2024/02/03 02:39:42;;;;;;;16.60;12.35;;;;;;;-1.13;100.00;98221.91;1225164;75;2920614;-65
2024/02/03 02:42:15;;;;;;;15.50;11.55;;;;;;;-1.20;100.00;98211.16;1225216;75;2920395;-62
2024/02/03 02:44:48;;;;;;;15.70;12.90;;;;;;;-1.31;100.00;98208.47;1225243;75;2925671;-62
2024/02/03 02:47:21;;;;;;;14.15;10.80;;;;;;;-1.17;100.00;98223.81;1224490;75;2915828;-62
2024/02/03 02:49:54;;;;;;;17.90;13.70;;;;;;;-1.41;100.00;98216.53;1225345;75;2922301;-63
2024/02/03 02:52:29;;;;;;;20.90;16.15;;;;;;;-1.49;100.00;98218.44;1224998;75;2915874;-65
2024/02/03 02:55:02;;;;;;;19.25;15.50;;;;;;;-1.24;100.00;98218.44;1224532;75;2920522;-65
2024/02/03 02:57:35;;;;;;;16.20;12.85;;;;;;;-1.15;100.00;98220.78;1224970;75;2923058;-66
2024/02/03 03:00:11;;;;;;;17.25;12.15;;;;;;;-1.30;100.00;98225.34;1225601;75;2913661;-63
2024/02/03 03:02:44;;;;;;;17.00;13.40;;;;;;;-1.31;100.00;98218.44;1225134;75;2920610;-63
2024/02/03 03:05:17;;;;;;;17.40;12.90;;;;;;;-1.31;100.00;98219.22;1225031;75;2922934;-63
2024/02/03 03:07:52;;;;;;;19.10;13.05;;;;;;;-1.44;100.00;98231.47;1225742;75;2886330;-62
2024/02/03 03:10:25;;;;;;;18.30;12.95;;;;;;;-1.36;100.00;98230.31;1224669;75;2927966;-63
2024/02/03 03:12:58;;;;;;;14.40;11.55;;;;;;;-1.35;100.00;98242.63;1225497;75;2898384;-61
2024/02/03 03:15:31;;;;;;;17.55;13.65;;;;;;;-1.37;100.00;98231.50;1224778;75;2925276;-65
2024/02/03 03:18:04;;;;;;;16.35;12.60;;;;;;;-1.29;100.00;98221.53;1225071;75;2926075;-64
2024/02/03 03:20:40;;;;;;;16.25;12.80;;;;;;;-1.58;100.00;98240.25;1224775;75;2922346;-61
2024/02/03 03:23:16;;;;;;;18.80;14.65;;;;;;;-1.48;100.00;98236.06;1224452;75;2925066;-64
2024/02/03 03:25:49;;;;;;;18.00;14.50;;;;;;;-1.44;100.00;98236.84;1225517;75;2914241;-65
2024/02/03 03:28:21;;;;;;;20.40;15.25;;;;;;;-1.43;100.00;98227.63;1224660;75;2919909;-62
2024/02/03 03:30:54;;;;;;;16.80;13.35;;;;;;;-1.67;100.00;98234.47;1224091;75;2920789;-66
2024/02/03 03:33:27;;;;;;;17.00;13.85;;;;;;;-1.65;100.00;98237.56;1225542;75;2917482;-60
2024/02/03 03:36:00;;;;;;;18.75;14.25;;;;;;;-1.57;100.00;98249.84;1225192;75;2918326;-63
2024/02/03 03:38:42;;;;;;;16.40;12.50;;;;;;;-1.46;100.00;98235.69;1224772;75;2921149;-65
2024/02/03 03:41:15;;;;;;;13.90;11.50;;;;;;;-1.48;100.00;98248.72;1224380;75;2918611;-65
2024/02/03 03:43:49;;;;;;;19.30;15.35;;;;;;;-1.71;100.00;98239.06;1225414;75;2925217;-62
2024/02/03 03:46:22;;;;;;;26.70;17.00;;;;;;;-1.69;100.00;98249.44;1225168;75;2919567;-63
2024/02/03 03:48:56;;;;;;;20.60;14.40;;;;;;;-1.73;100.00;98266.31;1225177;75;2914584;-63
2024/02/03 03:51:29;;;;;;;21.40;15.90;;;;;;;-1.53;100.00;98260.59;1225256;75;2922841;-63
2024/02/03 03:54:05;;;;;;;21.05;14.45;;;;;;;-1.72;100.00;98259.78;1225270;75;2920068;-63
2024/02/03 03:56:38;;;;;;;17.00;13.35;;;;;;;-1.59;100.00;98240.63;1225749;75;2920058;-61
2024/02/03 03:59:11;;;;;;;17.75;14.25;;;;;;;-1.72;100.00;98256.31;1225655;75;2922737;-63
2024/02/03 04:01:49;;;;;;;25.50;19.15;;;;;;;-1.84;100.00;98241.34;1224581;75;2919163;-68
2024/02/03 04:04:22;;;;;;;22.00;16.50;;;;;;;-1.68;100.00;98256.31;1225340;75;2919347;-60
2024/02/03 04:06:55;;;;;;;21.60;16.85;;;;;;;-1.63;100.00;98250.63;1224941;75;2923625;-61
2024/02/03 04:09:31;;;;;;;18.20;13.35;;;;;;;-1.57;100.00;98244.47;1225266;75;2930171;-63
2024/02/03 04:12:03;;;;;;;16.10;12.40;;;;;;;-1.58;100.00;98266.34;1224188;75;2922254;-66
2024/02/03 04:14:36;;;;;;;19.45;15.05;;;;;;;-1.51;100.00;98244.88;1224617;75;2921287;-64
2024/02/03 04:17:09;;;;;;;16.70;13.20;;;;;;;-1.52;100.00;98248.69;1225066;75;2924469;-64
2024/02/03 04:19:42;;;;;;;15.85;12.60;;;;;;;-1.55;100.00;98244.88;1224761;75;2948327;-62
2024/02/03 04:22:16;;;;;;;19.35;14.80;;;;;;;-1.69;100.00;98257.47;1224592;75;2923130;-64
2024/02/03 04:24:53;;;;;;;20.25;15.20;;;;;;;-1.54;100.00;98237.56;1225389;75;2917559;-66
2024/02/03 04:27:26;;;;;;;14.30;12.00;;;;;;;-1.41;100.00;98236.06;1224393;75;2917902;-64
2024/02/03 04:29:59;;;;;;;15.75;11.80;;;;;;;-1.54;100.00;98233.00;1225476;75;2916782;-62
2024/02/03 04:32:32;;;;;;;16.45;12.70;;;;;;;-1.58;100.00;98242.19;1225273;75;2919446;-59
2024/02/03 04:35:05;;;;;;;13.55;10.70;;;;;;;-1.33;100.00;98243.00;1224675;75;2919496;-62
2024/02/03 04:37:38;;;;;;;18.30;12.05;;;;;;;-1.38;100.00;98227.25;1224705;75;2924563;-63
2024/02/03 04:40:15;;;;;;;14.15;11.35;;;;;;;-1.26;100.00;98246.84;1223279;75;2922268;-65
2024/02/03 04:42:48;;;;;;;16.20;12.65;;;;;;;-1.38;100.00;98247.97;1226111;75;2847910;-63
2024/02/03 04:45:20;;;;;;;19.75;14.50;;;;;;;-1.46;100.00;98241.06;1225498;75;2919137;-65
2024/02/03 04:47:53;;;;;;;18.20;13.35;;;;;;;-1.48;100.00;98246.03;1224340;83;2925447;-60
2024/02/03 04:50:27;;;;;;;17.05;12.25;;;;;;;-1.56;100.00;98231.84;1224144;75;2915570;-63
2024/02/03 04:53:00;;;;;;;16.65;10.95;;;;;;;-1.39;100.00;98222.28;1222982;75;2974468;-64
2024/02/03 04:55:36;;;;;;;12.15;10.30;;;;;;;-1.52;100.00;98233.34;1223802;75;2925050;-61
2024/02/03 04:58:09;;;;;;;15.85;12.55;;;;;;;-1.56;100.00;98226.47;1224528;83;2917561;-63
2024/02/03 05:00:41;;;;;;;20.15;14.50;;;;;;;-1.63;100.00;98237.19;1224324;75;2921261;-61
2024/02/03 05:03:14;;;;;;;16.20;13.00;;;;;;;-1.41;100.00;98229.94;1224382;75;2923749;-67
2024/02/03 05:05:48;;;;;;;14.70;11.55;;;;;;;-1.37;100.00;98230.69;1224215;75;2905467;-61
2024/02/03 05:08:21;;;;;;;21.05;13.30;;;;;;;-1.67;100.00;98229.13;1224492;75;2924814;-63
2024/02/03 05:10:57;;;;;;;22.00;15.30;;;;;;;-1.76;100.00;98229.47;1224779;75;2924954;-60
2024/02/03 05:13:30;;;;;;;40.05;28.60;;;;;;;-1.63;100.00;98253.28;1224408;75;2920754;-65
2024/02/03 05:16:02;;;;;;;36.80;25.60;;;;;;;-1.38;100.00;98240.69;1224193;75;2928190;-63
2024/02/03 05:18:35;;;;;;;34.00;21.70;;;;;;;-1.25;100.00;98238.41;1223514;75;2930570;-62
2024/02/03 05:21:09;;;;;;;26.85;19.10;;;;;;;-1.29;100.00;98230.34;1224515;75;2924206;-61
2024/02/03 05:23:41;;;;;;;20.90;16.40;;;;;;;-1.17;100.00;98248.00;1224178;75;2924033;-62
2024/02/03 05:26:17;;;;;;;19.00;14.00;;;;;;;-1.10;100.00;98241.88;1224447;75;2928229;-62
2024/02/03 05:28:50;;;;;;;18.15;13.90;;;;;;;-1.10;100.00;98266.81;1224800;75;2920529;-64
2024/02/03 05:31:26;;;;;;;18.00;13.40;;;;;;;-1.17;100.00;98249.94;1224384;75;2946539;-65
2024/02/03 05:33:59;;;;;;;15.20;11.25;;;;;;;-1.19;100.00;98242.25;1225494;75;2910862;-66
2024/02/03 05:36:31;;;;;;;11.90;9.85;;;;;;;-1.17;100.00;98258.00;1225251;75;2925800;-63
2024/02/03 05:39:04;;;;;;;12.60;9.15;;;;;;;-1.14;100.00;98255.28;1224583;75;2928401;-61
2024/02/03 05:41:40;;;;;;;14.25;10.70;;;;;;;-1.27;100.00;98237.22;1224523;75;2920862;-63
2024/02/03 05:44:12;;;;;;;15.40;11.55;;;;;;;-1.28;100.00;98244.53;1223863;75;2924876;-64
2024/02/03 05:46:45;;;;;;;15.90;12.35;;;;;;;-1.47;100.00;98245.66;1224529;75;2913830;-61
2024/02/03 05:49:18;;;;;;;20.05;15.15;;;;;;;-1.58;100.00;98231.44;1224910;75;2921911;-62
2024/02/03 05:51:51;;;;;;;17.60;13.70;;;;;;;-1.63;100.00;98264.78;1224537;75;2926041;-63
2024/02/03 05:54:24;;;;;;;16.40;13.65;;;;;;;-1.61;100.00;98253.66;1223953;75;2920107;-62
2024/02/03 05:56:59;;;;;;;18.30;14.20;;;;;;;-1.67;100.00;98263.25;1224523;75;2925170;-65
2024/02/03 05:59:32;;;;;;;19.55;14.80;;;;;;;-1.72;100.00;98251.72;1224302;75;2921873;-62
2024/02/03 06:02:05;;;;;;;17.40;13.45;;;;;;;-1.62;100.00;98246.78;1224565;75;2920600;-65
2024/02/03 06:04:39;;;;;;;19.15;15.30;;;;;;;-1.69;100.00;98270.91;1224870;75;2925652;-64
2024/02/03 06:07:12;;;;;;;22.05;16.30;;;;;;;-1.87;100.00;98258.19;1223777;75;2928214;-61
2024/02/03 06:09:45;;;;;;;19.90;15.00;;;;;;;-1.71;100.00;98273.94;1224251;75;2926707;-64
2024/02/03 06:12:20;;;;;;;19.65;14.95;;;;;;;-1.62;100.00;98254.81;1224979;75;2918954;-62
2024/02/03 06:14:53;;;;;;;18.50;14.35;;;;;;;-1.62;100.00;98282.44;1223326;75;2938876;-62
2024/02/03 06:17:26;;;;;;;20.10;14.45;;;;;;;-1.63;100.00;98278.22;1224033;75;2927271;-63
2024/02/03 06:19:59;;;;;;;19.15;14.60;;;;;;;-1.70;100.00;98272.06;1223376;75;2920428;-62
2024/02/03 06:22:31;;;;;;;21.10;17.10;;;;;;;-1.85;100.00;98261.28;1223747;75;2924847;-63
2024/02/03 06:25:04;;;;;;;18.60;14.60;;;;;;;-1.75;100.00;98283.94;1219255;75;3192345;-63
2024/02/03 06:27:40;;;;;;;18.15;14.60;;;;;;;-1.57;100.00;98278.63;1223965;75;2945831;-66
2024/02/03 06:30:14;;;;;;;16.60;13.00;;;;;;;-1.55;100.00;98270.94;1223368;75;2934598;-61
2024/02/03 06:32:46;;;;;;;19.35;14.75;;;;;;;-1.83;100.00;98285.78;1224118;75;2925928;-63
2024/02/03 06:35:19;;;;;;;15.95;12.85;;;;;;;-1.50;100.00;98281.31;1223658;75;2947323;-63
2024/02/03 06:37:52;;;;;;;16.70;13.15;;;;;;;-1.54;100.00;98277.84;1222944;75;2921336;-65
2024/02/03 06:40:26;;;;;;;14.00;11.50;;;;;;;-1.44;100.00;98277.13;1223987;75;2933512;-63
2024/02/03 06:43:02;;;;;;;13.15;10.25;;;;;;;-1.38;100.00;98272.91;1224431;75;2924228;-65
2024/02/03 06:45:35;;;;;;;11.20;9.45;;;;;;;-1.37;100.00;98292.47;1223822;75;2930072;-65
2024/02/03 06:48:10;;;;;;;17.10;14.00;;;;;;;-1.48;100.00;98289.00;1223462;75;2918283;-62
2024/02/03 06:50:42;;;;;;;17.80;13.95;;;;;;;-1.48;100.00;98291.69;1223803;75;2927361;-62
2024/02/03 06:53:15;;;;;;;15.85;12.20;;;;;;;-1.37;100.00;98284.41;1223506;75;2934327;-60
2024/02/03 06:55:48;;;;;;;16.95;13.15;;;;;;;-1.15;100.00;98287.94;1223400;83;2930666;-62
2024/02/03 06:58:24;;;;;;;14.90;11.60;;;;;;;-1.11;100.00;98294.84;1223380;75;2922960;-61
2024/02/03 07:00:56;;;;;;;14.00;11.20;;;;;;;-0.94;100.00;98311.34;1223768;75;2930819;-64
2024/02/03 07:03:30;;;;;;;12.65;10.15;;;;;;;-0.71;100.00;98300.25;1223586;75;2925055;-63
2024/02/03 07:06:03;;;;;;;16.60;12.30;;;;;;;-0.90;100.00;98296.00;1223812;75;2933681;-61
2024/02/03 07:08:37;;;;;;;16.25;12.05;;;;;;;1.01;100.00;98297.78;1223647;75;2926488;-63
2024/02/03 07:11:11;;;;;;;13.30;10.30;;;;;;;3.76;100.00;98286.72;1224698;75;2929313;-64
2024/02/03 07:13:47;;;;;;;14.05;11.55;;;;;;;4.72;94.30;98296.88;1222936;75;2952986;-63
2024/02/03 07:16:19;;;;;;;13.40;10.70;;;;;;;6.09;82.14;98300.59;1225021;75;2921708;-61
2024/02/03 07:18:52;;;;;;;16.75;11.65;;;;;;;6.98;73.82;98280.97;1224554;75;2929080;-64
2024/02/03 07:21:27;;;;;;;13.65;10.50;;;;;;;8.67;68.32;98295.16;1223818;75;2929681;-66
2024/02/03 07:24:00;;;;;;;15.55;12.55;;;;;;;8.91;66.39;98282.50;1224611;75;2919088;-64
2024/02/03 07:26:33;;;;;;;14.75;11.50;;;;;;;10.95;61.12;98291.56;1224309;75;2920405;-63
2024/02/03 07:29:08;;;;;;;13.50;10.95;;;;;;;11.21;59.01;98297.41;1224348;75;2926746;-62
2024/02/03 07:31:41;;;;;;;11.15;9.10;;;;;;;12.36;54.52;98304.25;1223790;75;2924835;-65
2024/02/03 07:34:14;;;;;;;26.05;18.90;;;;;;;12.57;53.74;98287.84;1224175;75;2925525;-63
2024/02/03 07:36:47;;;;;;;15.80;11.95;;;;;;;14.33;48.77;98300.00;1224603;75;2920779;-60
2024/02/03 07:39:20;;;;;;;17.00;11.25;;;;;;;13.25;50.51;98303.41;1224883;75;2930823;-65
2024/02/03 07:41:53;;;;;;;20.75;15.50;;;;;;;13.27;49.92;98302.94;1223833;75;2920527;-62
2024/02/03 07:44:28;;;;;;;22.45;15.15;;;;;;;14.02;49.15;98296.69;1223778;75;2939240;-63
2024/02/03 07:47:01;;;;;;;15.80;11.95;;;;;;;13.06;51.29;98299.38;1224537;75;2926419;-62
2024/02/03 07:49:34;;;;;;;14.15;10.15;;;;;;;15.72;46.46;98305.09;1225563;75;2925561;-62
2024/02/03 07:52:08;;;;;;;12.95;10.00;;;;;;;15.33;46.09;98311.13;1224208;75;2920273;-64
2024/02/03 07:54:40;;;;;;;13.05;9.75;;;;;;;15.55;46.16;98307.72;1223449;75;2926365;-66
2024/02/03 07:57:13;;;;;;;10.98;8.07;;;;;;;16.65;43.52;98300.81;1198732;75;4849087;-61
2024/02/03 07:59:49;;;;;;;12.25;8.05;;;;;;;16.75;43.82;98296.56;1225211;75;2920154;-63
2024/02/03 08:02:21;;;;;;;10.00;7.20;;;;;;;16.04;44.91;98299.44;1196428;75;5152041;-63
2024/02/03 08:04:54;;;;;;;14.15;10.60;;;;;;;15.48;45.89;98305.44;1224763;75;2918344;-64
2024/02/03 08:07:27;;;;;;;12.65;9.90;;;;;;;13.95;47.70;98293.56;1224989;75;2919527;-65
2024/02/03 08:10:00;;;;;;;22.25;15.70;;;;;;;13.82;48.79;98302.19;1224729;75;2923959;-62
2024/02/03 08:12:33;;;;;;;14.60;11.20;;;;;;;14.41;48.80;98310.09;1224318;75;2910384;-62
2024/02/03 08:15:10;;;;;;;13.90;9.95;;;;;;;13.99;49.53;98313.41;1224305;75;2926642;-67
2024/02/03 08:17:43;;;;;;;13.35;9.30;;;;;;;11.73;53.32;98312.47;1224515;75;2923187;-61
2024/02/03 08:20:16;;;;;;;17.35;11.80;;;;;;;12.34;54.00;98301.19;1224524;75;2924874;-64
2024/02/03 08:22:49;;;;;;;12.60;9.75;;;;;;;14.64;49.21;98291.06;1225317;75;2919046;-63
2024/02/03 08:25:21;;;;;;;14.10;9.30;;;;;;;12.35;53.05;98299.97;1224679;75;2923016;-64
2024/02/03 08:27:54;;;;;;;10.25;7.45;;;;;;;14.00;50.07;98301.91;1224283;75;2922117;-61
2024/02/03 08:30:30;;;;;;;12.80;8.35;;;;;;;13.08;53.06;98296.91;1224587;75;2920127;-64
2024/02/03 08:33:03;;;;;;;12.35;8.95;;;;;;;12.51;52.86;98301.50;1224691;75;2918576;-60
2024/02/03 08:35:36;;;;;;;12.15;9.00;;;;;;;12.79;52.92;98301.97;1224807;75;2930367;-64
2024/02/03 08:38:09;;;;;;;11.75;8.40;;;;;;;14.88;50.45;98294.25;1224188;75;2940197;-64
2024/02/03 08:40:41;;;;;;;9.80;7.45;;;;;;;15.09;49.61;98294.91;1224624;75;2926937;-62
2024/02/03 08:43:15;;;;;;;7.82;6.40;;;;;;;15.58;48.34;98308.00;1199064;75;5020170;-61
2024/02/03 08:45:50;;;;;;;11.80;8.45;;;;;;;14.81;48.92;98313.25;1224567;75;2920035;-64
2024/02/03 08:48:23;;;;;;;13.15;8.50;;;;;;;14.45;49.62;98293.34;1224815;75;2926069;-61
2024/02/03 08:50:56;;;;;;;8.40;7.00;;;;;;;15.62;48.59;98314.81;1225005;75;2928750;-63
2024/02/03 08:53:28;;;;;;;11.40;9.10;;;;;;;10.79;56.46;98317.31;1224999;75;2906704;-62
2024/02/03 08:56:01;;;;;;;11.90;9.10;;;;;;;12.49;54.68;98311.44;1224553;75;2922511;-63
2024/02/03 08:58:35;;;;;;;13.80;8.75;;;;;;;11.27;59.04;98307.25;1224279;75;2919655;-65
2024/02/03 09:01:10;;;;;;;8.90;7.00;;;;;;;11.89;56.32;98314.06;1224965;75;2920980;-66
2024/02/03 09:03:43;;;;;;;9.15;7.75;;;;;;;11.86;55.30;98295.03;1224565;75;2926832;-63
2024/02/03 09:06:16;;;;;;;9.95;8.15;;;;;;;12.52;56.94;98292.00;1224463;75;2923186;-64
2024/02/03 09:08:49;;;;;;;8.35;6.25;;;;;;;13.54;54.46;98290.81;1224711;75;2920648;-64
2024/02/03 09:11:22;;;;;;;12.20;7.65;;;;;;;12.41;55.10;98297.34;1223524;75;2942127;-67
2024/02/03 09:13:55;;;;;;;9.20;6.40;;;;;;;12.23;56.20;98287.25;1224731;75;2923918;-63
2024/02/03 09:16:30;;;;;;;9.70;7.70;;;;;;;13.01;56.59;98281.56;1224843;75;2921417;-61
2024/02/03 09:19:03;;;;;;;8.40;6.70;;;;;;;13.32;54.92;98272.03;1223816;75;2926728;-64
2024/02/03 09:21:36;;;;;;;9.75;6.35;;;;;;;12.73;55.95;98278.38;1224617;75;2923041;-61
2024/02/03 09:24:10;;;;;;;7.80;5.65;;;;;;;13.92;53.64;98294.53;1224615;75;2909417;-66
2024/02/03 09:26:43;;;;;;;7.70;6.10;;;;;;;13.40;54.25;98282.16;1224867;75;2922525;-65
2024/02/03 09:29:16;;;;;;;8.50;6.05;;;;;;;13.92;53.86;98278.03;1224212;75;2926551;-64
2024/02/03 09:31:52;;;;;;;9.25;6.10;;;;;;;14.11;53.44;98287.50;1225188;75;2934282;-64
2024/02/03 09:34:25;;;;;;;8.70;5.90;;;;;;;14.48;52.37;98284.13;1224092;75;2916482;-63
2024/02/03 09:36:57;;;;;;;7.85;5.65;;;;;;;14.93;51.13;98295.53;1224923;75;2907885;-65
2024/02/03 09:39:30;;;;;;;9.85;7.50;;;;;;;13.95;53.25;98294.34;1224844;75;2920021;-66
2024/02/03 09:42:04;;;;;;;11.95;8.25;;;;;;;13.23;54.61;98311.38;1224131;75;2929458;-66
2024/02/03 09:44:37;;;;;;;12.50;8.20;;;;;;;14.78;52.48;98309.47;1224371;75;2938332;-67
2024/02/03 09:47:16;;;;;;;9.45;6.95;;;;;;;15.36;50.12;98292.09;1224082;75;2924039;-64
2024/02/03 09:49:49;;;;;;;12.80;7.80;;;;;;;14.95;51.67;98289.56;1224503;75;2923582;-63
2024/02/03 09:52:22;;;;;;;13.65;9.05;;;;;;;14.67;52.85;98307.38;1224048;75;2946029;-64
2024/02/03 09:54:55;;;;;;;11.10;8.30;;;;;;;15.09;51.31;98314.22;1224550;75;2925366;-62
2024/02/03 09:57:28;;;;;;;17.00;9.50;;;;;;;14.37;51.68;98317.06;1224341;75;2918499;-65
2024/02/03 10:00:01;;;;;;;13.05;7.85;;;;;;;16.10;49.03;98314.03;1224573;75;2933067;-62
2024/02/03 10:02:38;;;;;;;14.20;9.95;;;;;;;16.25;48.57;98307.53;1223577;75;2953523;-63
2024/02/03 10:05:11;;;;;;;17.75;10.50;;;;;;;13.92;53.19;98309.06;1224556;75;2923119;-62
2024/02/03 10:07:44;;;;;;;17.35;11.60;;;;;;;13.51;55.40;98289.03;1224002;75;2920598;-62
2024/02/03 10:10:17;;;;;;;15.50;11.20;;;;;;;14.44;54.61;98298.13;1224348;75;2928569;-63
2024/02/03 10:12:50;;;;;;;16.20;10.65;;;;;;;14.51;54.24;98302.44;1223737;75;2928262;-63
2024/02/03 10:15:23;;;;;;;14.85;10.40;;;;;;;14.96;51.89;98288.28;1224260;75;2920720;-63
2024/02/03 10:18:02;;;;;;;12.95;10.00;;;;;;;15.21;52.97;98278.44;1223411;75;2925470;-63
2024/02/03 10:20:35;;;;;;;12.00;9.30;;;;;;;16.52;50.96;98297.78;1224611;75;2920230;-64
2024/02/03 10:23:08;;;;;;;13.00;9.50;;;;;;;14.28;53.72;98317.97;1223991;75;2914912;-64
2024/02/03 10:25:42;;;;;;;14.00;9.55;;;;;;;15.46;51.90;98302.41;1224911;75;2924509;-62
2024/02/03 10:28:18;;;;;;;15.65;10.00;;;;;;;16.40;51.21;98291.50;1224478;75;2921889;-63
2024/02/03 10:30:50;;;;;;;19.45;12.05;;;;;;;13.91;54.32;98282.78;1225149;75;2920430;-64
2024/02/03 10:33:26;;;;;;;12.55;9.95;;;;;;;16.45;51.06;98285.25;1224716;75;2921251;-64
2024/02/03 10:36:02;;;;;;;13.00;9.30;;;;;;;17.53;48.90;98283.91;1224824;75;2914568;-63
2024/02/03 10:38:35;;;;;;;15.95;10.15;;;;;;;16.63;49.82;98277.72;1224358;75;2920374;-66
2024/02/03 10:41:12;;;;;;;15.85;9.55;;;;;;;17.06;48.81;98283.00;1225096;75;2925371;-67
2024/02/03 10:43:49;;;;;;;9.95;7.00;;;;;;;18.54;46.41;98271.56;1225000;75;2922694;-64
2024/02/03 10:46:24;;;;;;;11.10;8.00;;;;;;;18.53;45.90;98270.84;1224589;75;2922045;-65
2024/02/03 10:49:02;;;;;;;11.65;8.75;;;;;;;17.18;47.62;98265.88;1222362;75;3049662;-66
2024/02/03 10:51:35;;;;;;;;;;;;;;;16.71;47.92;98264.88;1223249;75;2946377;-64
2024/02/03 10:54:17;;;;;;;11.00;7.80;;;;;;;16.94;49.23;98271.94;1224996;75;2938766;-63
2024/02/03 10:56:53;;;;;;;14.85;9.95;;;;;;;16.58;49.46;98260.63;1224641;75;2916624;-64
2024/02/03 10:59:26;;;;;;;12.75;9.05;;;;;;;16.47;50.11;98265.38;1224862;75;2922905;-63
2024/02/03 11:01:59;;;;;;;14.95;8.75;;;;;;;16.53;49.21;98261.38;1224872;75;2915234;-68
2024/02/03 11:04:41;;;;;;;11.80;8.70;;;;;;;16.59;48.86;98262.09;1224855;75;2921764;-64
2024/02/03 11:07:25;;;;;;;11.20;8.30;;;;;;;17.53;48.97;98253.44;1224665;75;2919745;-62
2024/02/03 11:09:59;;;;;;;10.40;7.45;;;;;;;17.90;47.51;98268.94;1225315;75;2915026;-64
2024/02/03 11:12:37;;;;;;;11.20;8.75;;;;;;;17.32;47.50;98266.88;1224425;75;2920868;-63
2024/02/03 11:15:14;;;;;;;13.70;8.70;;;;;;;17.45;47.84;98253.22;1225145;75;2922525;-64
2024/02/03 11:17:49;;;;;;;11.50;8.80;;;;;;;16.92;48.71;98248.81;1225331;75;2922952;-67
2024/02/03 11:20:27;;;;;;;11.10;8.55;;;;;;;17.66;47.95;98239.81;1224847;75;2898119;-64
2024/02/03 11:23:01;;;;;;;10.85;7.75;;;;;;;17.75;47.66;98238.00;1224625;75;2919491;-62
2024/02/03 11:25:38;;;;;;;11.45;8.40;;;;;;;17.76;47.51;98240.28;1224400;75;2920223;-64
2024/02/03 11:28:11;;;;;;;11.25;8.10;;;;;;;17.38;48.55;98228.84;1224534;75;2928503;-62